Time;durP1;ratioP1;P1;durP2;ratioP2;P2;SDS_P1;SDS_P2;PMS_P1;PMS_P2;Temp;Humidity;BMP_temperature;BMP_pressure;BME280_temperature;BME280_humidity;BME280_pressure;Samples;Min_cycle;Max_cycle;Signal;HPM_P1;HPM_P2
2021/03/24 00:00:49;;;;;;;43.17;27.53;;;8.60;92.00;;;;;;5071428;28;20195;-75
2021/03/24 00:03:15;;;;;;;39.10;26.80;;;8.60;92.00;;;;;;5072249;28;20425;-75
2021/03/24 00:05:52;;;;;;;41.73;28.03;;;8.60;92.00;;;;;;5071534;28;20495;-75
2021/03/24 00:08:22;;;;;;;38.10;25.53;;;8.50;91.90;;;;;;5071846;28;20761;-75
2021/03/24 00:10:51;;;;;;;40.33;28.00;;;8.50;92.00;;;;;;5071689;28;20902;-75
2021/03/24 00:13:17;;;;;;;41.60;28.27;;;8.50;91.90;;;;;;5072359;28;20410;-75
2021/03/24 00:15:43;;;;;;;37.43;28.50;;;8.50;92.20;;;;;;5071300;28;20504;-75
2021/03/24 00:18:09;;;;;;;39.60;27.83;;;8.50;92.40;;;;;;5072453;28;20483;-75
2021/03/24 00:20:38;;;;;;;38.07;27.10;;;8.50;92.20;;;;;;5071185;28;20234;-75
2021/03/24 00:23:05;;;;;;;40.50;27.00;;;8.40;92.00;;;;;;5052179;28;20510;-75
2021/03/24 00:25:31;;;;;;;41.50;28.40;;;8.40;92.20;;;;;;5069714;28;20867;-75
2021/03/24 00:27:57;;;;;;;42.13;29.03;;;8.40;92.20;;;;;;5072215;28;20426;-75
2021/03/24 00:30:27;;;;;;;38.90;26.77;;;8.30;92.60;;;;;;5071941;28;20421;-76
2021/03/24 00:32:53;;;;;;;41.40;29.03;;;8.30;92.30;;;;;;5071532;28;20446;-75
2021/03/24 00:35:19;;;;;;;38.63;28.60;;;8.30;92.40;;;;;;5072008;28;20957;-75
2021/03/24 00:37:46;;;;;;;37.53;25.83;;;8.30;92.60;;;;;;5070938;28;20322;-75
2021/03/24 00:40:34;;;;;;;38.57;26.60;;;8.30;92.50;;;;;;5072131;28;20501;-75
2021/03/24 00:43:00;;;;;;;32.70;24.97;;;8.30;92.60;;;;;;5071914;28;20395;-75
2021/03/24 00:45:26;;;;;;;40.50;26.60;;;8.20;92.40;;;;;;5071649;28;20458;-75
2021/03/24 00:47:52;;;;;;;39.70;24.73;;;8.20;92.50;;;;;;5070304;28;20410;-75
2021/03/24 00:50:21;;;;;;;32.93;23.37;;;8.20;92.50;;;;;;5071437;28;20186;-75
2021/03/24 00:52:47;;;;;;;38.57;25.87;;;8.20;92.70;;;;;;5071280;28;20421;-75
2021/03/24 00:55:15;;;;;;;36.77;26.50;;;8.10;92.20;;;;;;5071284;28;20415;-75
2021/03/24 00:57:40;;;;;;;39.10;26.30;;;8.10;92.50;;;;;;5070948;28;20917;-75
2021/03/24 01:00:11;;;;;;;36.20;25.87;;;8.10;92.50;;;;;;5071655;28;20418;-75
2021/03/24 01:02:36;;;;;;;39.83;26.20;;;8.00;92.40;;;;;;5070713;28;20560;-75
2021/03/24 01:05:08;;;;;;;45.33;27.80;;;8.00;92.70;;;;;;5071820;28;20530;-75
2021/03/24 01:07:34;;;;;;;39.50;26.30;;;8.00;92.70;;;;;;5069401;28;20187;-74
2021/03/24 01:10:00;;;;;;;39.60;26.07;;;7.90;92.70;;;;;;5071812;28;20475;-75
2021/03/24 01:12:26;;;;;;;45.20;27.10;;;7.90;92.80;;;;;;5071428;28;20270;-75
2021/03/24 01:14:51;;;;;;;40.10;25.83;;;7.90;92.70;;;;;;5071203;28;20396;-75
2021/03/24 01:17:17;;;;;;;37.77;26.53;;;7.90;92.90;;;;;;5071958;28;20428;-75
2021/03/24 01:19:44;;;;;;;45.17;28.40;;;7.80;93.00;;;;;;5071267;28;20182;-75
2021/03/24 01:22:09;;;;;;;40.50;28.37;;;7.90;93.00;;;;;;5072001;28;20179;-75
2021/03/24 01:24:35;;;;;;;37.10;27.00;;;7.80;93.10;;;;;;5071047;28;20414;-75
2021/03/24 01:27:01;;;;;;;42.00;26.17;;;7.80;93.30;;;;;;5071540;28;20678;-75
2021/03/24 01:29:27;;;;;;;38.93;26.50;;;7.80;93.40;;;;;;5071261;28;20233;-75
2021/03/24 01:31:52;;;;;;;36.17;25.63;;;7.80;93.40;;;;;;5070437;28;20689;-75
2021/03/24 01:34:18;;;;;;;42.40;26.33;;;7.80;93.20;;;;;;5071638;28;20180;-75
2021/03/24 01:36:44;;;;;;;35.57;24.97;;;7.70;93.20;;;;;;5070383;28;20241;-75
2021/03/24 01:39:10;;;;;;;35.50;25.70;;;7.70;93.20;;;;;;5071396;28;20258;-75
2021/03/24 01:41:35;;;;;;;38.70;26.60;;;7.80;93.60;;;;;;5070322;28;20182;-74
2021/03/24 01:44:01;;;;;;;39.87;24.30;;;7.70;93.30;;;;;;5071759;28;20396;-75
2021/03/24 01:46:32;;;;;;;35.93;25.70;;;7.70;93.30;;;;;;5071481;28;20491;-75
2021/03/24 01:49:20;;;;;;;35.30;24.47;;;7.70;93.30;;;;;;5072282;28;20369;-75
2021/03/24 01:51:50;;;;;;;36.90;25.00;;;7.80;93.40;;;;;;5074146;28;20416;-75
2021/03/24 01:54:21;;;;;;;41.90;25.23;;;7.70;93.30;;;;;;5074989;28;20386;-75
2021/03/24 01:56:53;;;;;;;36.53;24.93;;;7.70;93.20;;;;;;5073987;28;20399;-74
2021/03/24 01:59:19;;;;;;;36.80;25.60;;;7.70;93.30;;;;;;5074825;28;20447;-75
2021/03/24 02:01:45;;;;;;;37.27;24.50;;;7.70;93.60;;;;;;5072173;28;20425;-75
2021/03/24 02:04:11;;;;;;;35.40;25.00;;;7.70;93.70;;;;;;5073571;28;20409;-76
2021/03/24 02:06:59;;;;;;;41.10;26.93;;;7.70;93.70;;;;;;5073679;28;20201;-74
2021/03/24 02:10:01;;;;;;;35.10;25.03;;;7.70;93.60;;;;;;5074636;28;20392;-75
2021/03/24 02:12:42;;;;;;;35.50;24.50;;;7.70;93.70;;;;;;5051970;28;20804;-75
2021/03/24 02:15:18;;;;;;;33.93;24.23;;;7.60;93.50;;;;;;5062991;28;20481;-75
2021/03/24 02:17:46;;;;;;;34.87;24.67;;;7.60;93.70;;;;;;5073843;28;20506;-75
2021/03/24 02:20:31;;;;;;;39.50;26.47;;;7.60;94.00;;;;;;5074129;28;20505;-75
2021/03/24 02:23:06;;;;;;;35.10;22.90;;;7.60;94.30;;;;;;5073741;28;20911;-75
2021/03/24 02:25:53;;;;;;;34.27;23.57;;;7.70;93.80;;;;;;5073832;28;20443;-75
2021/03/24 02:28:21;;;;;;;35.00;23.70;;;7.60;93.40;;;;;;5073805;28;20414;-75
2021/03/24 02:30:48;;;;;;;32.47;24.07;;;7.60;93.40;;;;;;5052270;28;20422;-74
2021/03/24 02:33:19;;;;;;;35.27;24.03;;;7.60;93.40;;;;;;5054441;28;20438;-75
2021/03/24 02:35:48;;;;;;;36.67;24.20;;;7.50;93.50;;;;;;5060018;28;20427;-74
2021/03/24 02:38:16;;;;;;;36.77;24.13;;;7.50;93.60;;;;;;5073906;28;20424;-75
2021/03/24 02:40:44;;;;;;;34.67;23.27;;;7.40;93.80;;;;;;5052014;28;20761;-75
2021/03/24 02:43:11;;;;;;;31.97;23.00;;;7.40;93.70;;;;;;5054033;28;20500;-75
2021/03/24 02:45:40;;;;;;;33.87;24.03;;;7.40;93.80;;;;;;5058548;28;20443;-75
2021/03/24 02:48:10;;;;;;;43.83;24.10;;;7.40;93.90;;;;;;5074222;28;20455;-75
2021/03/24 02:50:39;;;;;;;31.43;21.97;;;7.40;93.80;;;;;;5073300;28;20403;-74
2021/03/24 02:53:06;;;;;;;37.07;24.20;;;7.40;93.60;;;;;;5073928;28;20400;-75
2021/03/24 02:55:35;;;;;;;30.50;20.60;;;7.30;93.90;;;;;;5072300;28;20544;-75
2021/03/24 02:58:00;;;;;;;28.73;20.80;;;7.30;93.80;;;;;;5073236;28;20389;-75
2021/03/24 03:00:27;;;;;;;35.87;23.83;;;7.30;93.50;;;;;;5073300;28;20450;-75
2021/03/24 03:03:01;;;;;;;34.43;23.60;;;7.30;93.80;;;;;;5072453;28;20190;-75
2021/03/24 03:05:34;;;;;;;34.20;22.70;;;7.30;93.90;;;;;;5071900;28;20412;-75
2021/03/24 03:08:14;;;;;;;34.20;23.23;;;7.30;93.80;;;;;;5073071;28;20405;-74
2021/03/24 03:11:06;;;;;;;34.07;22.60;;;7.30;93.70;;;;;;5072197;28;20421;-74
2021/03/24 03:13:54;;;;;;;30.20;20.57;;;7.30;93.80;;;;;;5072191;28;20392;-74
2021/03/24 03:16:29;;;;;;;35.80;22.20;;;7.30;94.00;;;;;;5073084;28;20741;-74
2021/03/24 03:19:07;;;;;;;33.20;21.97;;;7.30;93.90;;;;;;5072572;28;20445;-74
2021/03/24 03:21:49;;;;;;;29.90;20.90;;;7.30;93.90;;;;;;5073021;28;20406;-74
2021/03/24 03:24:16;;;;;;;29.17;21.80;;;7.20;93.90;;;;;;5073083;28;20405;-74
2021/03/24 03:26:44;;;;;;;31.00;20.90;;;7.20;93.90;;;;;;5071460;28;20971;-74
2021/03/24 03:29:15;;;;;;;29.23;19.90;;;7.20;93.90;;;;;;5072738;28;20893;-74
2021/03/24 03:31:46;;;;;;;32.00;22.60;;;7.20;93.90;;;;;;5072340;28;20391;-73
2021/03/24 03:34:14;;;;;;;30.20;21.67;;;7.20;93.80;;;;;;5073128;28;20368;-74
2021/03/24 03:36:43;;;;;;;29.60;20.33;;;7.20;93.70;;;;;;5071902;28;20417;-74
2021/03/24 03:39:13;;;;;;;29.37;20.20;;;7.20;93.90;;;;;;5061214;28;20481;-74
2021/03/24 03:41:39;;;;;;;42.67;23.20;;;7.20;93.90;;;;;;5071310;28;20764;-74
2021/03/24 03:44:07;;;;;;;29.43;20.27;;;7.20;94.20;;;;;;5071419;28;20383;-74
2021/03/24 03:46:38;;;;;;;33.23;21.50;;;7.20;94.20;;;;;;5072508;28;20533;-74
2021/03/24 03:49:04;;;;;;;32.23;21.40;;;7.20;94.10;;;;;;5072458;28;20482;-74
2021/03/24 03:52:00;;;;;;;28.20;20.57;;;7.20;94.10;;;;;;5072537;28;20419;-74
2021/03/24 03:54:29;;;;;;;31.83;20.67;;;7.20;93.80;;;;;;5053511;28;20411;-74
2021/03/24 03:57:00;;;;;;;33.90;21.67;;;7.20;93.80;;;;;;5071675;28;20428;-74
2021/03/24 03:59:38;;;;;;;34.57;22.97;;;7.20;93.80;;;;;;5072136;28;20420;-74
2021/03/24 04:02:09;;;;;;;27.30;19.90;;;7.20;93.70;;;;;;5071431;28;20407;-74
2021/03/24 04:04:48;;;;;;;31.73;21.90;;;7.20;93.80;;;;;;5072614;28;20389;-75
2021/03/24 04:07:20;;;;;;;27.27;19.47;;;7.20;93.70;;;;;;5072114;28;20452;-74
2021/03/24 04:09:47;;;;;;;26.03;19.77;;;7.10;93.90;;;;;;5071700;28;20393;-74
2021/03/24 04:12:16;;;;;;;29.93;20.50;;;7.20;93.70;;;;;;5072231;28;20413;-74
2021/03/24 04:14:43;;;;;;;32.23;22.40;;;7.10;93.70;;;;;;5070761;28;20421;-74
2021/03/24 04:17:21;;;;;;;37.40;22.20;;;7.10;93.60;;;;;;5070901;28;20403;-74
2021/03/24 04:19:50;;;;;;;30.13;19.43;;;7.10;93.70;;;;;;5070205;28;20401;-74
2021/03/24 04:22:21;;;;;;;30.40;19.97;;;7.00;93.60;;;;;;5068600;28;20467;-74
2021/03/24 04:24:50;;;;;;;31.67;21.67;;;7.00;93.80;;;;;;5069883;28;20424;-74
2021/03/24 04:27:18;;;;;;;32.20;19.90;;;7.00;93.70;;;;;;5072393;28;20401;-74
2021/03/24 04:29:53;;;;;;;28.83;19.90;;;7.00;94.00;;;;;;5071372;28;20387;-74
2021/03/24 04:32:19;;;;;;;29.67;20.35;;;7.00;94.10;;;;;;5072274;28;20366;-74
2021/03/24 04:34:45;;;;;;;30.30;20.97;;;7.00;94.00;;;;;;5070721;28;20174;-74
2021/03/24 04:37:20;;;;;;;32.63;20.60;;;7.00;94.00;;;;;;5072175;28;20178;-74
2021/03/24 04:40:07;;;;;;;31.50;21.03;;;6.90;93.80;;;;;;5071432;28;20928;-74
2021/03/24 04:42:46;;;;;;;33.47;22.50;;;6.90;93.90;;;;;;5072129;28;20480;-74
2021/03/24 04:45:38;;;;;;;31.00;21.47;;;7.00;94.20;;;;;;5072153;28;20475;-74
2021/03/24 04:48:27;;;;;;;29.33;22.20;;;6.90;94.20;;;;;;5070966;28;20583;-74
2021/03/24 04:50:57;;;;;;;32.20;20.30;;;6.90;94.40;;;;;;5070641;28;20464;-74
2021/03/24 04:53:25;;;;;;;31.30;22.03;;;6.90;94.50;;;;;;5071639;28;20394;-74
2021/03/24 04:55:55;;;;;;;32.23;22.30;;;6.90;94.30;;;;;;5071109;28;20733;-74
2021/03/24 04:58:31;;;;;;;30.50;21.53;;;6.90;94.20;;;;;;5072203;28;20944;-74
2021/03/24 05:01:14;;;;;;;31.80;21.07;;;6.90;94.40;;;;;;5071141;28;20945;-74
2021/03/24 05:03:44;;;;;;;31.17;21.57;;;6.90;94.40;;;;;;5071852;28;20397;-74
2021/03/24 05:06:40;;;;;;;32.43;22.03;;;6.90;94.10;;;;;;5071654;28;20457;-74
2021/03/24 05:09:06;;;;;;;34.20;22.20;;;6.90;94.10;;;;;;5070971;28;20740;-74
2021/03/24 05:11:39;;;;;;;34.63;24.73;;;6.90;94.30;;;;;;5071841;28;20704;-74
2021/03/24 05:14:16;;;;;;;35.00;24.30;;;6.90;94.30;;;;;;5071021;28;20398;-74
2021/03/24 05:16:44;;;;;;;31.37;22.20;;;6.90;94.40;;;;;;5071087;28;20399;-74
2021/03/24 05:19:20;;;;;;;36.90;22.60;;;6.90;94.30;;;;;;5070927;28;20430;-74
2021/03/24 05:21:46;;;;;;;31.13;20.47;;;6.90;94.40;;;;;;5071025;28;20166;-74
2021/03/24 05:24:17;;;;;;;38.30;22.97;;;6.90;94.80;;;;;;5072701;28;20390;-75
2021/03/24 05:26:50;;;;;;;30.10;19.90;;;7.00;94.90;;;;;;5075037;28;20236;-74
2021/03/24 05:29:25;;;;;;;32.13;21.87;;;7.00;94.80;;;;;;5075447;28;20485;-74
2021/03/24 05:31:55;;;;;;;29.23;21.37;;;7.00;94.50;;;;;;5074524;28;20688;-74
2021/03/24 05:34:31;;;;;;;31.00;20.57;;;7.00;94.30;;;;;;5075343;28;20419;-74
2021/03/24 05:36:58;;;;;;;27.70;20.30;;;7.00;94.10;;;;;;5074712;28;20850;-74
2021/03/24 05:39:28;;;;;;;30.10;20.00;;;7.00;94.20;;;;;;5075121;28;20406;-74
2021/03/24 05:42:06;;;;;;;29.53;22.00;;;6.90;94.30;;;;;;5074400;28;20716;-74
2021/03/24 05:44:47;;;;;;;31.80;21.70;;;6.90;94.00;;;;;;5075019;28;20451;-74
2021/03/24 05:47:38;;;;;;;33.10;21.00;;;7.00;94.30;;;;;;5074810;28;20995;-74
2021/03/24 05:50:41;;;;;;;29.03;21.50;;;6.90;94.20;;;;;;5073989;28;21394;-74
2021/03/24 05:53:13;;;;;;;31.50;20.10;;;7.00;94.50;;;;;;5072930;28;20986;-74
2021/03/24 05:55:57;;;;;;;35.40;20.40;;;7.00;94.60;;;;;;5075098;28;20423;-74
2021/03/24 05:58:41;;;;;;;30.73;20.00;;;7.00;94.80;;;;;;5073747;28;20372;-74
2021/03/24 06:01:31;;;;;;;30.30;22.30;;;7.00;94.70;;;;;;5073432;28;20458;-74
2021/03/24 06:04:15;;;;;;;26.47;19.50;;;7.10;94.70;;;;;;5074081;28;20462;-74
2021/03/24 06:07:13;;;;;;;26.30;19.00;;;7.10;94.60;;;;;;5074937;28;20451;-74
2021/03/24 06:10:03;;;;;;;29.45;21.20;;;7.10;94.70;;;;;;5074047;28;20918;-74
2021/03/24 06:12:51;;;;;;;32.43;19.47;;;7.20;94.90;;;;;;5071250;28;20169;-74
2021/03/24 06:15:42;;;;;;;33.00;21.77;;;7.10;94.80;;;;;;5087981;28;20415;-74
2021/03/24 06:18:29;;;;;;;31.97;20.17;;;7.10;95.00;;;;;;5073916;28;20379;-75
2021/03/24 06:21:11;;;;;;;30.93;19.70;;;7.10;95.10;;;;;;5073613;28;20392;-74
2021/03/24 06:23:37;;;;;;;33.30;20.97;;;7.10;95.20;;;;;;5073029;28;20406;-74
2021/03/24 06:26:03;;;;;;;30.00;19.93;;;7.10;95.40;;;;;;5073086;28;20614;-74
2021/03/24 06:28:39;;;;;;;31.87;20.73;;;7.10;95.60;;;;;;5072759;28;20178;-74
2021/03/24 06:31:20;;;;;;;31.63;20.63;;;7.20;95.90;;;;;;5072995;28;20197;-74
2021/03/24 06:33:58;;;;;;;31.53;21.20;;;7.20;96.30;;;;;;5073339;28;20367;-74
2021/03/24 06:36:58;;;;;;;32.77;22.77;;;7.30;96.10;;;;;;5071561;28;20430;-75
2021/03/24 06:39:48;;;;;;;33.53;21.87;;;7.40;96.10;;;;;;5054113;28;20835;-74
2021/03/24 06:42:39;;;;;;;30.97;20.83;;;7.40;96.20;;;;;;5064605;28;20413;-74
2021/03/24 06:45:23;;;;;;;36.70;23.13;;;7.40;96.30;;;;;;5072948;28;20390;-74
2021/03/24 06:48:00;;;;;;;30.10;21.00;;;7.50;96.40;;;;;;5075867;28;20747;-74
2021/03/24 06:50:54;;;;;;;31.57;23.50;;;7.60;96.50;;;;;;5073658;28;20492;-75
2021/03/24 06:53:46;;;;;;;31.83;22.73;;;7.60;96.40;;;;;;5073975;28;20393;-74
2021/03/24 06:56:33;;;;;;;33.40;23.43;;;7.70;96.30;;;;;;5072958;28;20403;-75
2021/03/24 06:59:20;;;;;;;34.90;24.10;;;7.80;96.40;;;;;;5072113;28;20390;-75
2021/03/24 07:01:57;;;;;;;38.00;22.30;;;7.90;96.30;;;;;;5073095;28;20770;-73
2021/03/24 07:05:04;;;;;;;31.87;22.17;;;8.00;96.20;;;;;;5073989;28;20408;-73
2021/03/24 07:08:04;;;;;;;30.63;19.63;;;8.10;96.40;;;;;;5072810;28;20434;-73
2021/03/24 07:10:37;;;;;;;33.40;21.00;;;8.10;96.30;;;;;;5072771;28;20425;-73
2021/03/24 07:13:22;;;;;;;26.40;19.43;;;8.30;96.10;;;;;;5073196;28;20961;-73
2021/03/24 07:16:03;;;;;;;31.23;22.57;;;8.40;96.20;;;;;;5072606;28;20422;-73
2021/03/24 07:19:06;;;;;;;32.03;21.87;;;8.40;95.80;;;;;;5073349;28;20509;-73
2021/03/24 07:21:47;;;;;;;28.93;20.43;;;8.60;95.60;;;;;;5073731;28;20406;-73
2021/03/24 07:24:36;;;;;;;27.73;20.20;;;8.70;94.80;;;;;;5072844;28;20442;-73
2021/03/24 07:27:05;;;;;;;27.50;20.03;;;8.90;94.20;;;;;;5072877;28;20478;-73
2021/03/24 07:29:55;;;;;;;31.43;20.00;;;9.00;94.10;;;;;;5073568;28;20418;-73
2021/03/24 07:32:39;;;;;;;32.37;21.27;;;9.10;94.40;;;;;;5073313;28;20825;-73
2021/03/24 07:35:36;;;;;;;29.90;21.50;;;9.20;94.50;;;;;;5071258;28;20407;-73
2021/03/24 07:38:26;;;;;;;28.83;19.27;;;9.40;94.20;;;;;;5074069;28;20409;-73
2021/03/24 07:41:20;;;;;;;32.80;18.43;;;9.50;93.70;;;;;;5072262;28;20569;-73
2021/03/24 07:44:07;;;;;;;29.10;19.80;;;9.60;93.30;;;;;;5072429;28;20415;-73
2021/03/24 07:47:11;;;;;;;27.93;21.17;;;9.80;93.10;;;;;;5054159;28;20443;-73
2021/03/24 07:49:51;;;;;;;26.37;19.13;;;9.90;92.90;;;;;;5072939;28;20391;-73
2021/03/24 07:52:41;;;;;;;28.17;19.97;;;9.90;92.40;;;;;;5085590;28;20411;-73
2021/03/24 07:55:42;;;;;;;36.20;19.60;;;10.10;91.80;;;;;;5066739;28;20526;-73
2021/03/24 07:58:34;;;;;;;25.73;18.20;;;10.20;91.70;;;;;;5071946;28;20526;-72
2021/03/24 08:01:15;;;;;;;26.67;18.43;;;10.20;91.10;;;;;;5070966;28;20464;-73
2021/03/24 08:04:10;;;;;;;29.30;18.40;;;10.30;91.20;;;;;;5071726;28;20395;-72
2021/03/24 08:07:12;;;;;;;28.30;18.87;;;10.40;91.10;;;;;;5072749;28;20555;-72
2021/03/24 08:10:17;;;;;;;28.67;20.27;;;10.60;91.60;;;;;;5072591;28;20482;-74
2021/03/24 08:12:54;;;;;;;27.67;18.60;;;10.70;91.10;;;;;;5072825;28;20423;-73
2021/03/24 08:15:37;;;;;;;33.33;22.37;;;10.60;90.80;;;;;;5072723;28;20404;-73
2021/03/24 08:18:37;;;;;;;26.13;18.47;;;10.80;91.20;;;;;;5072224;28;20446;-72
2021/03/24 08:21:38;;;;;;;27.07;19.60;;;10.90;91.20;;;;;;5072054;28;20526;-72
2021/03/24 08:24:29;;;;;;;28.30;19.33;;;11.00;90.80;;;;;;5062968;28;20429;-72
2021/03/24 08:26:56;;;;;;;25.37;20.03;;;11.20;90.80;;;;;;5072186;28;20547;-72
2021/03/24 08:29:37;;;;;;;23.73;19.27;;;11.30;90.70;;;;;;5072819;28;20473;-72
2021/03/24 08:32:11;;;;;;;27.00;18.67;;;11.30;90.10;;;;;;5072131;28;20741;-74
2021/03/24 08:34:48;;;;;;;30.57;18.83;;;11.40;90.80;;;;;;5072381;28;20414;-71
2021/03/24 08:38:02;;;;;;;21.27;17.00;;;11.50;90.50;;;;;;5070804;28;20654;-71
2021/03/24 08:40:42;;;;;;;22.53;18.20;;;11.70;90.00;;;;;;5064834;28;20421;-71
2021/03/24 08:43:14;;;;;;;26.43;19.20;;;11.80;90.40;;;;;;5071943;28;20413;-72
2021/03/24 08:46:18;;;;;;;30.23;20.30;;;12.00;90.00;;;;;;5072524;28;20450;-71
2021/03/24 08:48:57;;;;;;;28.70;20.63;;;12.00;88.20;;;;;;5071285;28;20434;-71
2021/03/24 08:51:41;;;;;;;28.27;21.03;;;12.00;88.50;;;;;;5072510;28;20881;-71
2021/03/24 08:54:28;;;;;;;27.73;19.73;;;11.90;88.70;;;;;;5070952;28;20419;-71
2021/03/24 08:57:08;;;;;;;28.70;20.67;;;12.10;89.00;;;;;;5072287;28;20411;-72
2021/03/24 08:59:41;;;;;;;29.37;20.53;;;12.30;88.80;;;;;;5076535;28;20425;-72
2021/03/24 09:02:45;;;;;;;24.43;19.10;;;12.50;89.00;;;;;;5074116;28;20426;-72
2021/03/24 09:05:29;;;;;;;31.80;22.50;;;12.60;87.60;;;;;;5074774;28;20417;-72
2021/03/24 09:08:06;;;;;;;32.37;20.87;;;12.80;88.40;;;;;;5075946;28;20906;-72
2021/03/24 09:10:49;;;;;;;34.07;23.50;;;12.90;87.10;;;;;;5076115;28;20422;-72
2021/03/24 09:13:31;;;;;;;31.60;22.13;;;13.00;86.30;;;;;;5075339;28;20812;-72
2021/03/24 09:16:03;;;;;;;33.90;23.37;;;13.20;85.90;;;;;;5075487;28;20994;-72
2021/03/24 09:18:38;;;;;;;33.50;24.00;;;13.20;85.00;;;;;;5075745;28;20403;-74
2021/03/24 09:21:14;;;;;;;34.30;23.87;;;13.30;84.90;;;;;;5074886;28;20415;-72
2021/03/24 09:24:24;;;;;;;32.33;23.53;;;13.40;85.30;;;;;;5075845;28;20386;-72
2021/03/24 09:27:17;;;;;;;34.90;23.70;;;13.20;83.40;;;;;;5065164;28;20486;-73
2021/03/24 09:29:45;;;;;;;34.47;22.93;;;13.40;84.40;;;;;;5075755;28;20415;-73
2021/03/24 09:32:32;;;;;;;34.17;24.17;;;13.60;85.50;;;;;;5075181;28;20414;-73
2021/03/24 09:35:20;;;;;;;43.80;25.90;;;13.90;85.50;;;;;;5075275;28;20396;-73
2021/03/24 09:37:59;;;;;;;36.20;25.83;;;14.20;84.40;;;;;;5075362;28;20751;-73
2021/03/24 09:40:40;;;;;;;37.47;24.83;;;14.40;80.20;;;;;;5075150;28;20394;-73
2021/03/24 09:43:20;;;;;;;37.87;25.60;;;14.50;80.80;;;;;;5075351;28;20397;-73
2021/03/24 09:45:59;;;;;;;39.80;27.60;;;14.90;80.20;;;;;;5074162;28;20586;-73
2021/03/24 09:48:25;;;;;;;37.63;26.47;;;15.30;79.30;;;;;;5075595;28;20426;-73
2021/03/24 09:51:07;;;;;;;39.23;26.17;;;15.60;76.40;;;;;;5075156;28;20885;-73
2021/03/24 09:53:39;;;;;;;39.37;26.73;;;15.90;76.00;;;;;;5073917;28;20215;-73
2021/03/24 09:56:19;;;;;;;33.10;24.93;;;16.20;76.20;;;;;;5074097;28;20413;-72
2021/03/24 09:59:19;;;;;;;30.70;23.60;;;16.50;74.60;;;;;;5074194;28;20405;-72
2021/03/24 10:02:14;;;;;;;35.10;26.40;;;16.70;72.60;;;;;;5073980;28;20419;-72
2021/03/24 10:05:06;;;;;;;32.80;24.77;;;17.00;72.40;;;;;;5073804;28;20450;-72
2021/03/24 10:07:38;;;;;;;35.90;26.30;;;17.20;70.30;;;;;;5074007;28;20431;-72
2021/03/24 10:10:24;;;;;;;42.03;27.40;;;17.40;69.00;;;;;;5073711;28;20399;-72
2021/03/24 10:13:24;;;;;;;33.90;25.20;;;17.50;68.90;;;;;;5075105;28;20419;-72
2021/03/24 10:16:01;;;;;;;37.13;26.13;;;17.80;65.80;;;;;;5073888;28;20773;-73
2021/03/24 10:18:38;;;;;;;32.13;24.50;;;17.90;64.60;;;;;;5074888;28;20735;-73
2021/03/24 10:21:15;;;;;;;31.83;24.70;;;17.80;65.10;;;;;;5074124;28;20395;-72
2021/03/24 10:23:57;;;;;;;31.90;24.33;;;17.90;64.00;;;;;;5074677;28;20454;-72
2021/03/24 10:26:29;;;;;;;32.40;23.47;;;18.10;66.30;;;;;;5074280;28;20463;-73
2021/03/24 10:29:06;;;;;;;33.70;25.10;;;18.30;66.90;;;;;;5074899;28;20855;-73
2021/03/24 10:32:03;;;;;;;30.40;24.67;;;18.40;65.20;;;;;;5074952;28;20464;-73
2021/03/24 10:34:36;;;;;;;32.67;24.83;;;18.50;63.30;;;;;;5073983;28;20411;-73
2021/03/24 10:37:16;;;;;;;32.90;25.30;;;18.70;63.80;;;;;;5074221;28;20429;-73
2021/03/24 10:39:57;;;;;;;31.43;24.40;;;18.60;61.40;;;;;;5074574;28;20396;-73
2021/03/24 10:42:39;;;;;;;30.60;24.83;;;18.80;62.00;;;;;;5073839;28;20413;-73
2021/03/24 10:45:26;;;;;;;33.57;25.77;;;19.00;60.60;;;;;;5073950;28;20387;-73
2021/03/24 10:48:05;;;;;;;32.30;26.10;;;19.10;59.90;;;;;;5074527;28;20409;-73
2021/03/24 10:50:42;;;;;;;35.77;25.23;;;18.60;58.30;;;;;;5074423;28;20387;-72
2021/03/24 10:53:24;;;;;;;34.53;26.03;;;18.70;59.50;;;;;;5073711;28;20399;-73
2021/03/24 10:56:12;;;;;;;37.20;27.50;;;19.00;60.40;;;;;;5074431;28;20419;-72
2021/03/24 10:58:53;;;;;;;36.07;26.47;;;19.10;61.80;;;;;;5073099;28;20855;-73
2021/03/24 11:01:40;;;;;;;35.37;26.37;;;19.40;59.00;;;;;;5073646;28;20445;-73
2021/03/24 11:04:24;;;;;;;36.93;24.90;;;19.50;58.90;;;;;;5073576;28;20729;-73
2021/03/24 11:07:00;;;;;;;32.27;24.43;;;19.60;58.10;;;;;;5074085;28;20455;-73
2021/03/24 11:09:40;;;;;;;32.30;25.33;;;19.80;58.50;;;;;;5073444;28;20452;-73
2021/03/24 11:12:09;;;;;;;31.63;24.30;;;19.80;56.40;;;;;;5072260;28;20429;-72
2021/03/24 11:14:40;;;;;;;34.77;25.17;;;19.70;57.90;;;;;;5073898;28;20416;-73
2021/03/24 11:17:17;;;;;;;31.30;23.90;;;19.50;57.80;;;;;;5073260;28;20463;-72
2021/03/24 11:19:47;;;;;;;30.80;24.23;;;19.80;58.20;;;;;;5073681;28;20402;-73
2021/03/24 11:22:34;;;;;;;33.23;24.30;;;20.10;57.60;;;;;;5073222;28;20383;-73
2021/03/24 11:25:13;;;;;;;28.97;23.17;;;20.40;56.90;;;;;;5073144;28;20423;-73
2021/03/24 11:28:03;;;;;;;34.93;24.87;;;20.60;56.60;;;;;;5073329;28;20898;-73
2021/03/24 11:30:36;;;;;;;31.47;24.03;;;20.60;55.90;;;;;;5073053;28;20787;-73
2021/03/24 11:33:30;;;;;;;30.43;24.70;;;20.50;55.40;;;;;;5073515;28;20418;-73
2021/03/24 11:36:09;;;;;;;33.37;23.83;;;20.60;54.80;;;;;;5073494;28;20416;-73
2021/03/24 11:38:48;;;;;;;34.80;26.50;;;20.50;54.10;;;;;;5073470;28;20536;-73
2021/03/24 11:41:26;;;;;;;33.83;25.90;;;20.50;54.90;;;;;;5072974;28;20392;-73
2021/03/24 11:44:14;;;;;;;31.00;24.93;;;20.60;54.70;;;;;;5073400;28;20441;-73
2021/03/24 11:46:42;;;;;;;26.13;21.80;;;20.70;54.60;;;;;;5073343;28;20554;-73
2021/03/24 11:49:28;;;;;;;31.20;25.00;;;20.70;55.20;;;;;;5072670;28;20412;-73
2021/03/24 11:52:22;;;;;;;30.37;24.83;;;20.80;54.60;;;;;;5072144;28;20415;-73
2021/03/24 11:54:53;;;;;;;27.33;24.07;;;21.00;55.10;;;;;;5073192;28;20418;-72
2021/03/24 11:57:28;;;;;;;30.40;22.87;;;21.00;54.90;;;;;;5072507;28;20399;-73
2021/03/24 12:00:06;;;;;;;27.20;24.30;;;21.00;53.10;;;;;;5073092;28;20493;-73
2021/03/24 12:02:56;;;;;;;29.13;24.00;;;20.90;53.90;;;;;;5072808;28;20400;-73
2021/03/24 12:05:30;;;;;;;26.80;21.00;;;21.00;53.90;;;;;;5072086;28;20417;-73
2021/03/24 12:08:11;;;;;;;28.50;21.10;;;21.10;53.40;;;;;;5073070;28;20395;-71
2021/03/24 12:10:39;;;;;;;26.20;22.17;;;21.10;52.00;;;;;;5073040;28;20482;-73
2021/03/24 12:13:13;;;;;;;25.77;21.10;;;21.30;52.70;;;;;;5073003;28;20380;-73
2021/03/24 12:15:42;;;;;;;27.47;22.00;;;21.30;52.40;;;;;;5073159;28;20429;-73
2021/03/24 12:18:26;;;;;;;26.53;23.60;;;21.20;52.70;;;;;;5072198;28;20746;-71
2021/03/24 12:20:59;;;;;;;25.67;22.30;;;20.90;52.50;;;;;;5073141;28;20853;-71
2021/03/24 12:23:29;;;;;;;29.10;23.20;;;20.60;52.90;;;;;;5072076;28;20415;-71
2021/03/24 12:25:58;;;;;;;24.83;21.20;;;20.70;52.90;;;;;;5072398;28;20459;-73
2021/03/24 12:28:31;;;;;;;28.00;21.77;;;20.60;52.60;;;;;;5070692;28;20411;-73
2021/03/24 12:31:10;;;;;;;29.70;21.80;;;20.70;51.80;;;;;;5072785;28;20464;-73
2021/03/24 12:33:40;;;;;;;27.33;22.07;;;20.70;51.90;;;;;;5072414;28;20402;-73
2021/03/24 12:36:19;;;;;;;26.77;21.47;;;20.70;52.30;;;;;;5071531;28;20411;-73
2021/03/24 12:39:03;;;;;;;26.83;21.37;;;20.70;52.60;;;;;;5072656;28;20398;-73
2021/03/24 12:41:43;;;;;;;24.47;19.80;;;20.60;51.40;;;;;;5072121;28;20636;-72
2021/03/24 12:44:18;;;;;;;28.73;19.20;;;20.60;51.20;;;;;;5072118;28;20391;-72
2021/03/24 12:46:55;;;;;;;29.80;18.83;;;20.60;51.20;;;;;;5072556;28;20442;-73
2021/03/24 12:49:34;;;;;;;27.57;19.73;;;20.60;51.20;;;;;;5071600;28;20419;-72
2021/03/24 12:52:12;;;;;;;27.60;20.90;;;20.50;52.00;;;;;;5072513;28;20391;-72
2021/03/24 12:54:37;;;;;;;27.07;20.43;;;20.50;52.30;;;;;;5072207;28;20411;-72
2021/03/24 12:57:25;;;;;;;28.10;20.30;;;20.20;51.40;;;;;;5072694;28;20863;-72
2021/03/24 12:59:51;;;;;;;24.97;21.23;;;20.10;50.90;;;;;;5072557;28;20164;-72
2021/03/24 13:02:41;;;;;;;27.60;19.60;;;20.10;51.90;;;;;;5071804;28;20395;-72
2021/03/24 13:05:36;;;;;;;28.90;21.53;;;20.10;53.00;;;;;;5072448;28;20172;-73
2021/03/24 13:08:24;;;;;;;27.20;18.27;;;20.20;53.30;;;;;;5072047;28;20438;-72
2021/03/24 13:11:06;;;;;;;28.73;19.67;;;20.20;52.10;;;;;;5072307;28;20552;-72
2021/03/24 13:14:02;;;;;;;21.83;17.63;;;20.30;52.00;;;;;;5071679;28;20473;-72
2021/03/24 13:16:43;;;;;;;27.20;20.63;;;20.30;52.40;;;;;;5068158;28;20748;-72
2021/03/24 13:19:24;;;;;;;28.20;18.93;;;20.40;53.40;;;;;;5072231;28;20407;-72
2021/03/24 13:22:13;;;;;;;27.47;21.00;;;20.40;52.70;;;;;;5072264;28;20514;-72
2021/03/24 13:24:54;;;;;;;25.30;18.23;;;20.50;52.60;;;;;;5072428;28;20408;-72
2021/03/24 13:28:01;;;;;;;26.20;19.43;;;20.60;51.50;;;;;;5071564;28;20446;-72